Flight Track Log - Related Links

Times and Time Zones

All times are in EDT time to prevent confusion due to time zone crossing. See the CHQ6163 flight status page for this flight to view local times or setup timezone preferences in your user account.

Time Position Orientation Groundspeed Altitude Reporting Facility
EDT Latitude Longitude Course Direction KTS MPH feet Rate Location/Type
Sun 06:27:38 AM 37.3122 -79.9986 296° West 157 181 2,100  Level Indianapolis Center
Sun 06:28:38 AM 37.2789 -80.0406 225° Southwest 172 198 4,200 2,020 Climbing Indianapolis Center
Sun 06:29:16 AM 37.2714 -80.0836 258° West 198 228 5,400 2,000 Climbing Washington Center
Sun 06:30:00 AM 37.4549 -80.3146 293° West  Level FlightAware Approximate
Sun 06:30:14 AM 37.3064 -80.1508 303° West 198 228 7,400  Level Washington Center
Sun 06:31:00 AM 37.4986 -80.4336 300° West  Level FlightAware Approximate
Sun 06:31:14 AM 37.3511 -80.2347 304° West 240 276 9,800  Level Washington Center
Sun 06:32:00 AM 37.5505 -80.5476 300° West  Level FlightAware Approximate
Sun 06:32:16 AM 37.3917 -80.3181 302° West 266 306 11,500  Level Washington Center
Sun 06:33:00 AM 37.5972 -80.6625 296° West  Level FlightAware Approximate
Sun 06:33:13 AM 37.4358 -80.4150 300° West 294 338 12,800  Level Washington Center
Sun 06:34:15 AM 37.4842 -80.5122 302° West 314 361 14,800 1,659 Climbing Washington Center
Sun 06:35:16 AM 37.5264 -80.6014 301° West 333 383 16,200 1,469 Climbing Washington Center
Sun 06:36:42 AM 37.6064 -80.7553 303° West 339 390 18,400 1,469 Climbing Indianapolis Center
Sun 06:37:43 AM 37.6533 -80.8544 301° West 339 390 19,800 1,339 Climbing Indianapolis Center
Sun 06:38:43 AM 37.7025 -80.9569 301° West 349 402 21,100 1,289 Climbing Indianapolis Center
Sun 06:39:44 AM 37.7525 -81.0597 302° West 352 405 22,400 1,190 Climbing Indianapolis Center
Sun 06:40:44 AM 37.8228 -81.1433 317° Northwest 381 438 23,500 1,041 Climbing Indianapolis Center
Sun 06:41:45 AM 37.9286 -81.1797 345° North 404 465 24,500 992 Climbing Indianapolis Center
Sun 06:42:45 AM 38.0394 -81.2197 344° North 412 474 25,500 1,140 Climbing Indianapolis Center
Sun 06:43:46 AM 38.1728 -81.2703 343° North 416 479 26,800 1,082 Climbing Indianapolis Center
Sun 06:44:47 AM 38.2864 -81.3122 344° North 423 487 27,700 595 Climbing Indianapolis Center
Sun 06:45:47 AM 38.4017 -81.3561 343° North 431 496 28,000 149 Climbing Indianapolis Center
Sun 06:46:48 AM 38.5231 -81.4019 344° North 450 518 28,000  Level Indianapolis Center
Sun 06:47:48 AM 38.6472 -81.4481 344° North 464 534 28,000  Level Indianapolis Center
Sun 06:48:49 AM 38.7700 -81.4992 342° North 463 533 28,000  Level Indianapolis Center
Sun 06:49:50 AM 38.8856 -81.5408 344° North 469 540 28,000  Level Indianapolis Center
Sun 06:50:50 AM 39.0072 -81.5881 343° North 460 529 28,000  Level Indianapolis Center
Sun 06:51:51 AM 39.1319 -81.6361 343° North 466 536 28,000  Level Indianapolis Center
Sun 06:52:52 AM 39.2547 -81.6833 343° North 462 532 28,000  Level Indianapolis Center
Sun 06:53:52 AM 39.3781 -81.7300 344° North 461 531 28,000  Level Indianapolis Center
Sun 06:54:53 AM 39.5014 -81.7797 343° North 463 533 28,000  Level Indianapolis Center
Sun 06:55:54 AM 39.6222 -81.8269 343° North 457 526 28,000  Level Indianapolis Center
Sun 06:56:54 AM 39.7544 -81.8719 345° North 460 529 28,000  Level Indianapolis Center
Sun 06:57:55 AM 39.8900 -81.8939 353° North 480 552 28,000  Level Indianapolis Center
Sun 06:58:56 AM 40.0225 -81.9181 352° North 480 552 28,000  Level Indianapolis Center
Sun 06:59:57 AM 40.1533 -81.9406 353° North 473 544 28,000  Level Indianapolis Center
Sun 07:00:57 AM 40.2869 -81.9653 352° North 476 548 28,000  Level Indianapolis Center
Sun 07:01:58 AM 40.4186 -81.9894 352° North 475 547 28,000  Level Indianapolis Center
Sun 07:02:59 AM 40.5497 -82.0131 352° North 473 544 28,000  Level Indianapolis Center
Sun 07:04:00 AM 40.6792 -82.0375 352° North 466 536 28,000  Level Indianapolis Center
Sun 07:05:00 AM 40.8100 -82.0603 352° North 470 541 28,000 -50 Level Indianapolis Center
Sun 07:06:01 AM 40.9403 -82.0839 352° North 467 537 27,900 -689 Descending Indianapolis Center
Sun 07:07:02 AM 41.0528 -82.1567 334° Northwest 447 514 26,600 -1,525 Descending Indianapolis Center
Sun 07:08:03 AM 41.1564 -82.2506 326° Northwest 446 513 24,800 -1,574 Descending Indianapolis Center
Sun 07:09:04 AM 41.2561 -82.3436 325° Northwest 436 502 23,400 -2,112 Descending Indianapolis Center
Sun 07:10:08 AM 41.3653 -82.4478 324° Northwest 416 479 20,400 -2,613 Descending Cleveland Center
Sun 07:11:08 AM 41.4494 -82.5250 325° Northwest 386 444 18,000 -2,450 Descending Cleveland Center
Sun 07:12:08 AM 41.5314 -82.5997 326° Northwest 370 426 15,500 -2,486 Descending Cleveland Center
Sun 07:12:59 AM 41.6075 -82.6686 326° Northwest 368 423 13,400 -1,750 Descending Cleveland Center
Sun 07:14:08 AM 41.6872 -82.7492 323° Northwest 365 420 12,000 -651 Descending Cleveland Center
Sun 07:15:08 AM 41.7650 -82.8297 322° Northwest 354 407 12,000  Level Cleveland Center
Sun 07:15:56 AM 41.8300 -82.9072 318° Northwest 351 404 12,000  Level Cleveland Center
Sun 07:17:03 AM 41.9133 -83.0081 318° Northwest 352 405 12,000  Level Cleveland Center
Sun 07:18:04 AM 41.9867 -83.0944 319° Northwest 348 400 12,000  Level Cleveland Center
Sun 07:19:05 AM 42.0597 -83.1814 319° Northwest 343 395 12,000  Level Cleveland Center
Sun 07:20:06 AM 42.1167 -83.2425 321° Northwest 250 288 12,000 -829 Level Cleveland Center
Sun 07:21:08 AM 42.1842 -83.2089 20° North 248 285 10,300 -1,525 Descending Cleveland Center
Sun 07:22:08 AM 42.2625 -83.1589 25° Northeast 266 306 8,900 -1,537 Descending Cleveland Center
Sun 07:23:09 AM 42.3281 -83.1194 24° Northeast 259 298 7,200 -1,826 Descending Cleveland Center
Sun 07:24:03 AM 42.3625 -83.1628 317° Northwest 202 232 5,400 -1,736 Descending Cleveland Center
Sun 07:25:10 AM 42.3400 -83.2294 245° Southwest 158 182 3,700 -1,266 Descending Cleveland Center
Sun 07:26:11 AM 42.3078 -83.2703 223° Southwest 161 185 2,700 -836 Descending Cleveland Center
Sun 07:27:12 AM 42.2761 -83.2969 212° Southwest 132 152 2,000 -724 Descending Cleveland Center
Sun 07:28:07 AM 42.2464 -83.3181 208° Southwest 127 146 1,300 -764 Descending Cleveland Center

Login

Don't have an account? Register now (free) for customized features, flight alerts, and more!